Main page
METAR-TAF:

METAR-TAF

Airports :

Madison Municipal Airport

Madison, Indiana, United States

latitude: 38-45-36N, longitude: 085-27-53W, elevation: 820 ft

Current weather observation

The report was made 24 minutes ago, at 11:16 UTC
Wind 3 mph from the West/Southwest
Temperature 64°F
Humidity 100%
Pressure 29.97 in. Hg
Visibility: 7 miles
Scattered clouds at a height of 1300 ft
Broken clouds at a height of 4500 ft
Overcast at a height of 7500 ft

METAR: KIMS 281116Z AUTO 25003KT 7SM SCT013 BKN045 OVC075 18/18 A2997 RMK AO1

Time: 07:40 (11:40 UTC)


TAF: missing

Weather observations and forecasts of more than 4000 airports (METAR and TAF reports).

The available stations are represented by yellow and red dots on the map.

Hover mouse over dot to see the name of the station.

Then click to see weather observations and forecasts.

To change the map : click on the green buttons with a black cross to zoom in, on the green button with a dash to zoom out, or on the green arrows for adjacent maps.


METAR-TAF: